createdAt,value
2022-08-11T00:01:12.786Z,60.61
2022-08-11T00:03:47.172Z,60.43
2022-08-11T00:06:15.542Z,60.15
2022-08-11T00:08:44.581Z,60.37
2022-08-11T00:11:12.777Z,60.25
2022-08-11T00:13:45.860Z,59.93
2022-08-11T00:16:23.954Z,59.60
2022-08-11T00:18:54.941Z,59.30
2022-08-11T00:21:32.489Z,59.18
2022-08-11T00:24:11.080Z,59.36
2022-08-11T00:26:37.987Z,59.28
2022-08-11T00:29:12.345Z,60.70
2022-08-11T00:31:46.571Z,60.17
2022-08-11T00:34:14.373Z,59.90
2022-08-11T00:36:47.446Z,59.78
2022-08-11T00:39:15.021Z,60.03
2022-08-11T00:41:59.043Z,60.54
2022-08-11T00:44:51.630Z,60.66
2022-08-11T00:47:34.640Z,60.44
2022-08-11T00:50:27.295Z,60.36
2022-08-11T00:52:54.086Z,60.43
2022-08-11T00:55:38.862Z,60.46
2022-08-11T00:58:22.556Z,60.60
2022-08-11T01:01:07.708Z,60.80
2022-08-11T01:03:58.976Z,60.44
2022-08-11T01:06:44.247Z,60.00
2022-08-11T01:09:30.206Z,59.96
2022-08-11T01:12:07.234Z,60.45
2022-08-11T01:14:39.589Z,59.89
2022-08-11T01:17:14.059Z,59.89
2022-08-11T01:20:46.150Z,59.74
2022-08-11T01:22:58.864Z,59.93
2022-08-11T01:25:31.290Z,59.66
2022-08-11T01:28:29.903Z,59.69
2022-08-11T01:31:11.509Z,59.71
2022-08-11T01:34:35.518Z,59.97
2022-08-11T01:37:20.938Z,59.92
2022-08-11T01:40:05.663Z,60.52
2022-08-11T01:43:24.867Z,60.62
2022-08-11T01:46:00.736Z,60.43
2022-08-11T01:48:41.500Z,60.75
2022-08-11T01:51:34.938Z,62.02
2022-08-11T01:54:24.448Z,61.54
2022-08-11T01:57:20.835Z,62.13
2022-08-11T01:59:55.395Z,61.37
2022-08-11T02:03:10.632Z,61.29
2022-08-11T02:06:01.237Z,61.84
2022-08-11T02:08:55.262Z,61.31
2022-08-11T02:11:37.300Z,61.15
2022-08-11T02:14:53.662Z,61.55
2022-08-11T02:18:08.357Z,63.97
2022-08-11T02:21:21.623Z,62.21
2022-08-11T02:24:05.668Z,63.78
2022-08-11T02:26:34.299Z,66.89
2022-08-11T02:29:23.044Z,64.80
2022-08-11T02:32:33.993Z,63.26
2022-08-11T02:35:19.230Z,63.34
2022-08-11T02:37:53.868Z,62.95
2022-08-11T02:40:31.562Z,62.80
2022-08-11T02:43:10.390Z,62.57
2022-08-11T02:45:49.164Z,62.22
2022-08-11T02:48:52.459Z,62.01
2022-08-11T02:51:48.540Z,62.81
2022-08-11T02:54:29.621Z,63.15
2022-08-11T02:57:11.448Z,63.18
2022-08-11T02:59:52.202Z,62.11
2022-08-11T03:02:38.295Z,62.02
2022-08-11T03:05:12.035Z,62.08
2022-08-11T03:07:59.912Z,62.34
2022-08-11T03:11:11.831Z,62.71
2022-08-11T03:14:25.948Z,63.55
2022-08-11T03:17:19.573Z,62.81
2022-08-11T03:20:24.085Z,62.32
2022-08-11T03:23:20.016Z,62.38
2022-08-11T03:26:27.176Z,63.05
2022-08-11T03:29:12.147Z,62.44
2022-08-11T03:31:55.603Z,62.18
2022-08-11T03:34:26.192Z,62.23
2022-08-11T03:37:17.117Z,62.01
2022-08-11T03:39:59.743Z,62.00
2022-08-11T03:42:54.253Z,62.75
2022-08-11T03:45:28.503Z,62.71
2022-08-11T03:48:27.275Z,62.81
2022-08-11T03:51:23.189Z,62.45
2022-08-11T03:54:22.015Z,62.90
2022-08-11T03:57:10.803Z,62.60
2022-08-11T04:00:03.563Z,62.58
2022-08-11T04:02:54.725Z,62.49
2022-08-11T04:05:39.231Z,62.53
2022-08-11T04:08:34.200Z,62.30
2022-08-11T04:11:19.193Z,62.50
2022-08-11T04:14:30.112Z,62.36
2022-08-11T04:17:23.385Z,62.58
2022-08-11T04:20:09.381Z,62.76
2022-08-11T04:23:06.475Z,63.12
2022-08-11T04:25:59.805Z,65.57
2022-08-11T04:29:09.601Z,64.00
2022-08-11T04:31:51.759Z,65.14
2022-08-11T04:34:35.246Z,64.31
2022-08-11T04:37:34.381Z,64.43
2022-08-11T04:40:12.801Z,100.00
2022-08-11T04:43:17.978Z,100.00
2022-08-11T04:45:47.492Z,100.00
2022-08-11T04:48:35.385Z,100.00
2022-08-11T04:51:42.440Z,100.00
2022-08-11T04:54:50.111Z,100.00
2022-08-11T04:57:46.838Z,100.00
2022-08-11T05:00:36.326Z,100.00
2022-08-11T05:03:40.134Z,100.00
2022-08-11T05:06:09.684Z,100.00
2022-08-11T05:09:04.028Z,100.00
2022-08-11T05:11:45.083Z,100.00
2022-08-11T05:14:29.924Z,100.00
2022-08-11T05:17:42.299Z,100.00
2022-08-11T05:20:29.393Z,100.00
2022-08-11T05:23:21.341Z,100.00
2022-08-11T05:26:25.412Z,100.00
2022-08-11T05:29:20.368Z,100.00
2022-08-11T05:32:19.538Z,100.00
2022-08-11T05:34:54.634Z,100.00
2022-08-11T05:37:34.270Z,100.00
2022-08-11T05:40:31.576Z,100.00
2022-08-11T05:43:31.690Z,100.00
2022-08-11T05:46:21.770Z,100.00
2022-08-11T05:49:07.917Z,100.00
2022-08-11T05:52:05.081Z,100.00
2022-08-11T05:54:51.646Z,100.00
2022-08-11T05:57:50.081Z,100.00
2022-08-11T06:00:19.571Z,100.00
2022-08-11T06:02:55.563Z,100.00
2022-08-11T06:05:23.085Z,100.00
2022-08-11T06:07:57.188Z,100.00
2022-08-11T06:10:33.554Z,100.00
2022-08-11T06:13:01.862Z,100.00
2022-08-11T06:15:31.323Z,100.00
2022-08-11T06:18:01.256Z,100.00
2022-08-11T06:20:32.805Z,100.00
2022-08-11T06:23:04.329Z,100.00
2022-08-11T06:25:37.223Z,100.00
2022-08-11T06:28:06.614Z,100.00
2022-08-11T06:30:43.432Z,100.00
2022-08-11T06:33:14.791Z,100.00
2022-08-11T06:36:09.434Z,100.00
2022-08-11T06:39:00.723Z,100.00
2022-08-11T06:41:52.156Z,100.00
2022-08-11T06:44:32.444Z,100.00
2022-08-11T06:47:08.927Z,100.00
2022-08-11T06:50:01.956Z,100.00
2022-08-11T06:52:36.753Z,100.00
2022-08-11T06:55:56.696Z,100.00
2022-08-11T06:58:41.832Z,100.00
2022-08-11T07:01:14.773Z,100.00
2022-08-11T07:03:48.766Z,100.00
2022-08-11T07:06:51.157Z,100.00
2022-08-11T07:10:12.494Z,100.00
2022-08-11T07:13:04.067Z,100.00
2022-08-11T07:16:10.868Z,100.00
2022-08-11T07:18:53.217Z,100.00
2022-08-11T07:22:02.402Z,100.00
2022-08-11T07:24:59.704Z,100.00
2022-08-11T07:27:55.519Z,100.00
2022-08-11T07:30:24.596Z,100.00
2022-08-11T07:32:53.199Z,100.00
2022-08-11T07:35:47.112Z,64.23
2022-08-11T07:38:43.199Z,55.37
2022-08-11T07:41:12.641Z,54.55
2022-08-11T07:43:44.975Z,100.00
2022-08-11T07:46:30.836Z,100.00
2022-08-11T07:49:17.217Z,100.00
2022-08-11T07:52:04.081Z,100.00
2022-08-11T07:54:33.355Z,100.00
2022-08-11T07:57:09.176Z,100.00
2022-08-11T08:00:06.906Z,100.00
2022-08-11T08:02:55.866Z,100.00
2022-08-11T08:05:41.156Z,52.90
2022-08-11T08:08:27.949Z,52.67
2022-08-11T08:11:15.374Z,52.67
2022-08-11T08:14:02.060Z,52.60
2022-08-11T08:16:49.523Z,50.74
2022-08-11T08:19:19.181Z,49.66
2022-08-11T08:21:47.231Z,49.60
2022-08-11T08:24:14.863Z,49.28
2022-08-11T08:26:59.050Z,48.44
2022-08-11T08:29:53.274Z,50.33
2022-08-11T08:32:21.777Z,49.72
2022-08-11T08:34:55.621Z,49.58
2022-08-11T08:37:46.904Z,51.09
2022-08-11T08:40:13.267Z,48.50
2022-08-11T08:42:48.289Z,47.13
2022-08-11T08:45:18.701Z,47.84
2022-08-11T08:47:57.060Z,48.10
2022-08-11T08:50:47.094Z,48.50
2022-08-11T08:53:15.069Z,45.15
2022-08-11T08:55:45.564Z,45.07
2022-08-11T08:58:14.062Z,44.58
2022-08-11T09:00:44.342Z,43.45
2022-08-11T09:03:40.584Z,44.85
2022-08-11T09:05:58.612Z,45.89
2022-08-11T09:08:25.581Z,46.19
2022-08-11T09:11:13.994Z,43.38
2022-08-11T09:13:44.505Z,43.87
2022-08-11T09:16:12.217Z,43.08
2022-08-11T09:18:44.733Z,43.63
2022-08-11T09:21:14.847Z,42.96
2022-08-11T09:24:26.059Z,42.43
2022-08-11T09:26:59.718Z,41.24
2022-08-11T09:29:31.796Z,42.38
2022-08-11T09:31:59.345Z,42.56
2022-08-11T09:34:27.481Z,42.77
2022-08-11T09:37:13.402Z,42.18
2022-08-11T09:40:15.533Z,41.25
2022-08-11T09:43:01.239Z,41.37
2022-08-11T09:45:28.065Z,40.81
2022-08-11T09:48:07.742Z,41.10
2022-08-11T09:50:36.127Z,41.02
2022-08-11T09:53:37.504Z,40.58
2022-08-11T09:55:53.520Z,40.23
2022-08-11T09:58:42.919Z,39.43
2022-08-11T10:01:27.229Z,40.22
2022-08-11T10:04:06.486Z,40.54
2022-08-11T10:06:55.402Z,40.12
2022-08-11T10:09:25.270Z,39.33
2022-08-11T10:11:58.652Z,39.34
2022-08-11T10:14:46.113Z,40.07
2022-08-11T10:17:14.671Z,41.02
2022-08-11T10:19:43.468Z,40.07
2022-08-11T10:22:29.026Z,38.59
2022-08-11T10:25:19.599Z,39.62
2022-08-11T10:28:29.108Z,39.58
2022-08-11T10:30:59.433Z,40.36
2022-08-11T10:33:55.311Z,39.93
2022-08-11T10:36:28.683Z,38.98
2022-08-11T10:38:57.368Z,39.40
2022-08-11T10:42:01.832Z,39.19
2022-08-11T10:44:44.515Z,38.47
2022-08-11T10:47:33.351Z,38.04
2022-08-11T10:50:20.352Z,39.55
2022-08-11T10:53:07.845Z,39.34
2022-08-11T10:55:58.718Z,39.84
2022-08-11T10:58:44.341Z,38.97
2022-08-11T11:01:11.754Z,37.03
2022-08-11T11:03:38.931Z,37.78
2022-08-11T11:06:28.853Z,38.40
2022-08-11T11:09:05.359Z,38.85
2022-08-11T11:12:10.135Z,38.28
2022-08-11T11:14:59.376Z,38.78
2022-08-11T11:17:50.733Z,37.08
2022-08-11T11:20:36.129Z,36.16
2022-08-11T11:23:10.234Z,36.16
2022-08-11T11:26:06.489Z,35.86
2022-08-11T11:28:50.118Z,36.36
2022-08-11T11:31:36.932Z,36.70
2022-08-11T11:34:48.586Z,36.90
2022-08-11T11:37:20.669Z,36.22
2022-08-11T11:39:47.539Z,35.27
2022-08-11T11:42:14.735Z,35.47
2022-08-11T11:44:45.582Z,34.56
2022-08-11T11:47:13.416Z,35.52
2022-08-11T11:49:44.109Z,34.12
2022-08-11T11:52:18.223Z,35.78
2022-08-11T11:54:50.437Z,34.88
2022-08-11T11:57:59.102Z,33.99
2022-08-11T12:00:45.382Z,34.41
2022-08-11T12:03:13.249Z,35.35
2022-08-11T12:05:43.766Z,35.87
2022-08-11T12:08:21.612Z,35.13
2022-08-11T12:11:16.674Z,34.79
2022-08-11T12:13:47.194Z,34.96
2022-08-11T12:16:33.647Z,35.69
2022-08-11T12:19:02.991Z,35.67
2022-08-11T12:21:30.495Z,36.03
2022-08-11T12:24:18.934Z,36.47
2022-08-11T12:27:16.626Z,36.57
2022-08-11T12:29:41.267Z,36.07
2022-08-11T12:32:11.354Z,33.69
2022-08-11T12:34:38.194Z,35.71
2022-08-11T12:37:10.910Z,34.13
2022-08-11T12:40:16.626Z,34.32
2022-08-11T12:43:21.195Z,34.32
2022-08-11T12:45:58.670Z,34.05
2022-08-11T12:48:59.911Z,34.05
2022-08-11T12:52:01.002Z,35.04
2022-08-11T12:54:58.815Z,35.18
2022-08-11T12:58:04.929Z,34.15
2022-08-11T13:00:51.632Z,34.16
2022-08-11T13:03:41.515Z,32.86
2022-08-11T13:06:08.763Z,34.17
2022-08-11T13:08:39.731Z,33.38
2022-08-11T13:11:55.947Z,32.83
2022-08-11T13:14:15.382Z,33.72
2022-08-11T13:17:03.132Z,33.92
2022-08-11T13:19:31.148Z,32.27
2022-08-11T13:21:58.718Z,31.72
2022-08-11T13:24:25.728Z,31.51
2022-08-11T13:26:53.166Z,32.27
2022-08-11T13:29:22.781Z,32.18
2022-08-11T13:31:50.517Z,32.21
2022-08-11T13:34:19.913Z,32.01
2022-08-11T13:36:52.179Z,31.89
2022-08-11T13:39:20.325Z,31.97
2022-08-11T13:41:48.587Z,31.22
2022-08-11T13:44:23.255Z,32.42
2022-08-11T13:46:53.121Z,32.70
2022-08-11T13:49:21.718Z,30.65
2022-08-11T13:51:48.623Z,30.85
2022-08-11T13:54:21.479Z,30.80
2022-08-11T13:56:52.925Z,30.80
2022-08-11T13:59:24.133Z,29.60
2022-08-11T14:02:22.110Z,30.46
2022-08-11T14:04:59.064Z,30.07
2022-08-11T14:07:35.848Z,30.01
2022-08-11T14:10:04.203Z,29.72
2022-08-11T14:12:53.107Z,30.46
2022-08-11T14:15:25.205Z,30.11
2022-08-11T14:18:01.735Z,29.99
2022-08-11T14:20:50.880Z,29.53
2022-08-11T14:23:20.987Z,29.18
2022-08-11T14:26:06.380Z,29.12
2022-08-11T14:28:44.387Z,29.69
2022-08-11T14:31:14.459Z,29.13
2022-08-11T14:34:01.144Z,29.00
2022-08-11T14:36:40.648Z,28.94
2022-08-11T14:39:12.909Z,28.30
2022-08-11T14:42:11.287Z,27.80
2022-08-11T14:45:10.404Z,28.11
2022-08-11T14:47:39.408Z,28.11
2022-08-11T14:50:11.322Z,27.58
2022-08-11T14:52:43.405Z,28.24
2022-08-11T14:55:30.716Z,29.62
2022-08-11T14:57:57.648Z,29.00
2022-08-11T15:00:25.390Z,30.17
2022-08-11T15:03:11.304Z,29.98
2022-08-11T15:05:56.145Z,30.63
2022-08-11T15:08:45.199Z,29.81
2022-08-11T15:11:32.529Z,30.30
2022-08-11T15:14:02.304Z,30.78
2022-08-11T15:16:48.547Z,30.05
2022-08-11T15:19:16.845Z,29.13
2022-08-11T15:22:01.982Z,29.24
2022-08-11T15:24:30.737Z,28.73
2022-08-11T15:27:19.430Z,29.86
2022-08-11T15:30:06.149Z,29.83
2022-08-11T15:32:53.082Z,29.31
2022-08-11T15:35:39.415Z,30.84
2022-08-11T15:38:12.529Z,30.89
2022-08-11T15:41:00.495Z,31.33
2022-08-11T15:44:09.740Z,31.69
2022-08-11T15:46:49.341Z,31.68
2022-08-11T15:50:10.430Z,31.70
2022-08-11T15:52:19.506Z,31.70
2022-08-11T15:54:48.441Z,32.38
2022-08-11T15:57:39.793Z,32.57
2022-08-11T16:00:26.313Z,32.74
2022-08-11T16:02:57.333Z,33.24
2022-08-11T16:05:46.118Z,33.33
2022-08-11T16:08:16.979Z,31.93
2022-08-11T16:11:00.972Z,31.67
2022-08-11T16:13:32.756Z,31.35
2022-08-11T16:16:17.338Z,31.23
2022-08-11T16:18:57.985Z,31.72
2022-08-11T16:21:36.435Z,31.54
2022-08-11T16:24:09.551Z,32.14
2022-08-11T16:27:11.433Z,31.62
2022-08-11T16:29:43.973Z,32.24
2022-08-11T16:32:18.134Z,100.00
2022-08-11T16:35:06.798Z,100.00
2022-08-11T16:37:53.713Z,100.00
2022-08-11T16:40:22.698Z,100.00
2022-08-11T16:43:11.414Z,100.00
2022-08-11T16:45:59.916Z,100.00
2022-08-11T16:48:35.645Z,100.00
2022-08-11T16:51:06.819Z,100.00
2022-08-11T16:54:00.068Z,100.00
2022-08-11T16:56:27.283Z,100.00
2022-08-11T16:59:17.699Z,100.00
2022-08-11T17:01:53.381Z,100.00
2022-08-11T17:05:10.848Z,100.00
2022-08-11T17:07:58.073Z,100.00
2022-08-11T17:10:55.703Z,100.00
2022-08-11T17:13:31.932Z,100.00
2022-08-11T17:16:08.992Z,100.00
2022-08-11T17:18:45.574Z,100.00
2022-08-11T17:21:17.953Z,100.00
2022-08-11T17:23:52.417Z,100.00
2022-08-11T17:26:28.112Z,100.00
2022-08-11T17:29:01.069Z,100.00
2022-08-11T17:31:48.150Z,100.00
2022-08-11T17:34:34.091Z,100.00
2022-08-11T17:37:01.552Z,100.00
2022-08-11T17:39:31.192Z,100.00
2022-08-11T17:42:18.345Z,100.00
2022-08-11T17:45:04.610Z,100.00
2022-08-11T17:47:51.315Z,100.00
2022-08-11T17:50:19.054Z,100.00
2022-08-11T17:53:05.964Z,100.00
2022-08-11T17:55:57.786Z,100.00
2022-08-11T17:58:45.101Z,100.00
2022-08-11T18:01:12.724Z,100.00
2022-08-11T18:03:41.610Z,100.00
2022-08-11T18:06:21.282Z,100.00
2022-08-11T18:09:21.203Z,100.00
2022-08-11T18:12:12.265Z,100.00
2022-08-11T18:15:00.757Z,100.00
2022-08-11T18:17:45.886Z,100.00
2022-08-11T18:20:31.109Z,100.00
2022-08-11T18:23:18.061Z,100.00
2022-08-11T18:26:06.481Z,100.00
2022-08-11T18:29:02.229Z,100.00
2022-08-11T18:31:51.952Z,100.00
2022-08-11T18:34:43.150Z,100.00
2022-08-11T18:37:46.275Z,100.00
2022-08-11T18:40:47.302Z,100.00
2022-08-11T18:43:35.485Z,100.00
2022-08-11T18:46:24.735Z,100.00
2022-08-11T18:49:16.594Z,100.00
2022-08-11T18:52:06.290Z,100.00
2022-08-11T18:54:55.360Z,100.00
2022-08-11T18:57:49.667Z,100.00
2022-08-11T19:00:41.145Z,100.00
2022-08-11T19:03:28.597Z,100.00
2022-08-11T19:06:38.552Z,100.00
2022-08-11T19:09:26.370Z,100.00
2022-08-11T19:12:13.316Z,100.00
2022-08-11T19:15:00.946Z,100.00
2022-08-11T19:17:48.778Z,100.00
2022-08-11T19:20:38.871Z,100.00
2022-08-11T19:26:27.849Z,100.00
2022-08-11T19:30:04.651Z,100.00
2022-08-11T19:32:22.336Z,100.00
2022-08-11T19:35:09.877Z,100.00
2022-08-11T19:37:58.426Z,100.00
2022-08-11T19:40:44.705Z,46.34
2022-08-11T19:43:31.487Z,46.63
2022-08-11T19:46:20.447Z,46.69
2022-08-11T19:49:15.623Z,47.01
2022-08-11T19:52:04.370Z,46.86
2022-08-11T19:54:53.431Z,46.68
2022-08-11T19:57:41.238Z,47.04
2022-08-11T20:00:33.530Z,46.53
2022-08-11T20:03:23.583Z,46.86
2022-08-11T20:06:09.822Z,47.68
2022-08-11T20:08:59.073Z,47.10
2022-08-11T20:11:46.463Z,47.09
2022-08-11T20:14:32.636Z,47.43
2022-08-11T20:17:19.851Z,47.32
2022-08-11T20:20:05.907Z,47.39
2022-08-11T20:22:51.085Z,48.26
2022-08-11T20:25:38.342Z,47.96
2022-08-11T20:28:25.292Z,48.27
2022-08-11T20:31:12.476Z,48.36
2022-08-11T20:33:59.174Z,49.20
2022-08-11T20:36:47.602Z,49.29
2022-08-11T20:39:41.990Z,49.63
2022-08-11T20:42:30.652Z,50.15
2022-08-11T20:45:18.811Z,50.50
2022-08-11T20:48:10.873Z,51.12
2022-08-11T20:51:06.012Z,50.69
2022-08-11T20:53:57.495Z,50.25
2022-08-11T20:56:45.715Z,52.57
2022-08-11T20:59:49.587Z,52.44
2022-08-11T21:02:41.178Z,55.79
2022-08-11T21:06:09.548Z,52.99
2022-08-11T21:08:36.964Z,52.46
2022-08-11T21:11:27.871Z,52.37
2022-08-11T21:14:13.625Z,52.96
2022-08-11T21:17:04.550Z,52.38
2022-08-11T21:20:18.425Z,52.10
2022-08-11T21:23:23.741Z,52.29
2022-08-11T21:26:15.617Z,52.67
2022-08-11T21:29:01.872Z,52.30
2022-08-11T21:31:50.149Z,52.67
2022-08-11T21:34:38.831Z,52.95
2022-08-11T21:37:26.137Z,52.95
2022-08-11T21:40:17.006Z,53.69
2022-08-11T21:43:06.631Z,53.09
2022-08-11T21:45:56.476Z,53.72
2022-08-11T21:48:44.405Z,53.34
2022-08-11T21:51:29.857Z,53.60
2022-08-11T21:54:18.079Z,54.09
2022-08-11T21:57:05.412Z,54.20
2022-08-11T22:00:02.799Z,54.48
2022-08-11T22:02:53.191Z,54.62
2022-08-11T22:05:39.928Z,54.98
2022-08-11T22:08:25.687Z,55.72
2022-08-11T22:11:10.828Z,60.91
2022-08-11T22:14:05.864Z,59.30
2022-08-11T22:16:53.835Z,58.93
2022-08-11T22:19:40.013Z,57.72
2022-08-11T22:22:26.405Z,57.54
2022-08-11T22:25:16.661Z,57.23
2022-08-11T22:28:04.213Z,57.06
2022-08-11T22:30:49.471Z,58.27
2022-08-11T22:33:36.344Z,59.90
2022-08-11T22:36:28.122Z,59.04
2022-08-11T22:39:17.191Z,59.17
2022-08-11T22:42:02.315Z,58.00
2022-08-11T22:44:47.783Z,57.58
2022-08-11T22:47:38.471Z,57.32
2022-08-11T22:50:27.353Z,57.76
2022-08-11T22:53:13.958Z,57.60
2022-08-11T22:55:59.712Z,58.65
2022-08-11T22:58:45.274Z,58.80
2022-08-11T23:01:35.701Z,59.03
2022-08-11T23:04:21.898Z,61.49
2022-08-11T23:07:08.568Z,59.92
2022-08-11T23:09:54.803Z,59.79
2022-08-11T23:12:40.501Z,59.47
2022-08-11T23:15:30.550Z,60.31
2022-08-11T23:18:15.973Z,59.96
2022-08-11T23:21:02.534Z,59.81
2022-08-11T23:23:48.385Z,59.84
2022-08-11T23:26:36.958Z,60.77
2022-08-11T23:29:24.932Z,61.51
2022-08-11T23:32:11.757Z,64.53
2022-08-11T23:35:40.530Z,65.03
2022-08-11T23:38:11.453Z,64.07
2022-08-11T23:40:57.569Z,62.39
2022-08-11T23:43:43.421Z,62.12
2022-08-11T23:46:29.159Z,61.68
2022-08-11T23:49:20.400Z,61.61
2022-08-11T23:52:07.693Z,61.08
2022-08-11T23:54:54.180Z,61.32
2022-08-11T23:57:47.676Z,60.74
